sensor_id;sensor_type;location;lat;lon;timestamp;pressure;altitude;pressure_sealevel;temperature;humidity
38912;BME280;28444;48.056;14.408;2023-11-21T00:01:11;97133.84;;;6.33;93.07
38912;BME280;28444;48.056;14.408;2023-11-21T00:03:38;97127.69;;;6.40;92.49
38912;BME280;28444;48.056;14.408;2023-11-21T00:06:05;97131.84;;;6.49;92.07
38912;BME280;28444;48.056;14.408;2023-11-21T00:08:36;97135.66;;;6.54;92.49
38912;BME280;28444;48.056;14.408;2023-11-21T00:11:02;97123.50;;;6.55;92.81
38912;BME280;28444;48.056;14.408;2023-11-21T00:13:32;97125.50;;;6.62;92.40
38912;BME280;28444;48.056;14.408;2023-11-21T00:15:59;97128.00;;;6.67;90.99
38912;BME280;28444;48.056;14.408;2023-11-21T00:18:25;97123.13;;;6.73;90.33
38912;BME280;28444;48.056;14.408;2023-11-21T00:20:52;97122.03;;;6.84;91.28
38912;BME280;28444;48.056;14.408;2023-11-21T00:23:18;97124.03;;;6.84;89.93
38912;BME280;28444;48.056;14.408;2023-11-21T00:25:45;97123.28;;;6.83;88.94
38912;BME280;28444;48.056;14.408;2023-11-21T00:28:11;97115.31;;;6.85;89.18
38912;BME280;28444;48.056;14.408;2023-11-21T00:30:38;97112.03;;;6.94;89.81
38912;BME280;28444;48.056;14.408;2023-11-21T00:33:05;97103.31;;;6.96;89.71
38912;BME280;28444;48.056;14.408;2023-11-21T00:35:32;97107.28;;;7.03;89.84
38912;BME280;28444;48.056;14.408;2023-11-21T00:37:58;97106.38;;;7.00;90.27
38912;BME280;28444;48.056;14.408;2023-11-21T00:40:25;97109.69;;;6.91;88.86
38912;BME280;28444;48.056;14.408;2023-11-21T00:42:51;97114.59;;;6.85;89.87
38912;BME280;28444;48.056;14.408;2023-11-21T00:45:18;97113.50;;;6.80;89.62
38912;BME280;28444;48.056;14.408;2023-11-21T00:47:45;97112.44;;;6.75;90.36
38912;BME280;28444;48.056;14.408;2023-11-21T00:50:11;97113.34;;;6.70;90.60
38912;BME280;28444;48.056;14.408;2023-11-21T00:52:38;97106.09;;;6.73;89.60
38912;BME280;28444;48.056;14.408;2023-11-21T00:55:05;97111.53;;;6.73;90.59
38912;BME280;28444;48.056;14.408;2023-11-21T00:57:34;97104.09;;;6.73;90.34
38912;BME280;28444;48.056;14.408;2023-11-21T01:00:01;97116.41;;;6.82;91.05
38912;BME280;28444;48.056;14.408;2023-11-21T01:02:28;97111.34;;;6.86;90.60
38912;BME280;28444;48.056;14.408;2023-11-21T01:04:55;97115.16;;;6.83;90.23
38912;BME280;28444;48.056;14.408;2023-11-21T01:07:22;97119.31;;;6.84;91.28
38912;BME280;28444;48.056;14.408;2023-11-21T01:09:49;97117.13;;;6.83;90.64
38912;BME280;28444;48.056;14.408;2023-11-21T01:12:16;97109.53;;;6.81;90.36
38912;BME280;28444;48.056;14.408;2023-11-21T01:14:44;97114.22;;;6.81;90.79
38912;BME280;28444;48.056;14.408;2023-11-21T01:17:11;97113.31;;;6.78;90.50
38912;BME280;28444;48.056;14.408;2023-11-21T01:19:38;97103.00;;;6.77;90.29
38912;BME280;28444;48.056;14.408;2023-11-21T01:22:05;97105.38;;;6.72;89.95
38912;BME280;28444;48.056;14.408;2023-11-21T01:24:31;97100.84;;;6.60;91.10
38912;BME280;28444;48.056;14.408;2023-11-21T01:26:58;97105.78;;;6.54;90.59
38912;BME280;28444;48.056;14.408;2023-11-21T01:29:25;97105.03;;;6.45;90.96
38912;BME280;28444;48.056;14.408;2023-11-21T01:31:51;97108.69;;;6.40;92.49
38912;BME280;28444;48.056;14.408;2023-11-21T01:34:18;97103.78;;;6.31;90.97
38912;BME280;28444;48.056;14.408;2023-11-21T01:36:46;97097.81;;;6.25;91.70
38912;BME280;28444;48.056;14.408;2023-11-21T01:39:13;97100.91;;;6.21;92.06
38912;BME280;28444;48.056;14.408;2023-11-21T01:41:42;97101.06;;;6.16;92.79
38912;BME280;28444;48.056;14.408;2023-11-21T01:44:10;97103.97;;;6.10;92.95
38912;BME280;28444;48.056;14.408;2023-11-21T01:46:38;97106.34;;;6.14;94.19
38912;BME280;28444;48.056;14.408;2023-11-21T01:49:05;97103.78;;;6.16;94.12
38912;BME280;28444;48.056;14.408;2023-11-21T01:51:32;97091.66;;;6.17;93.00
38912;BME280;28444;48.056;14.408;2023-11-21T01:53:59;97105.59;;;6.21;93.11
38912;BME280;28444;48.056;14.408;2023-11-21T01:56:26;97101.78;;;6.24;91.64
38912;BME280;28444;48.056;14.408;2023-11-21T01:58:53;97100.69;;;6.27;90.45
38912;BME280;28444;48.056;14.408;2023-11-21T02:01:20;97100.34;;;6.23;90.36
38912;BME280;28444;48.056;14.408;2023-11-21T02:03:47;97105.41;;;6.19;90.98
38912;BME280;28444;48.056;14.408;2023-11-21T02:06:14;97104.50;;;6.16;91.26
38912;BME280;28444;48.056;14.408;2023-11-21T02:08:41;97108.50;;;6.15;91.59
38912;BME280;28444;48.056;14.408;2023-11-21T02:11:10;97105.41;;;6.11;92.29
38912;BME280;28444;48.056;14.408;2023-11-21T02:13:39;97106.34;;;6.14;92.27
38912;BME280;28444;48.056;14.408;2023-11-21T02:16:10;97108.28;;;6.13;92.40
38912;BME280;28444;48.056;14.408;2023-11-21T02:18:39;97110.28;;;6.13;92.49
38912;BME280;28444;48.056;14.408;2023-11-21T02:21:06;97106.13;;;6.04;94.09
38912;BME280;28444;48.056;14.408;2023-11-21T02:23:33;97095.59;;;5.85;92.59
38912;BME280;28444;48.056;14.408;2023-11-21T02:26:00;97105.69;;;5.69;92.40
38912;BME280;28444;48.056;14.408;2023-11-21T02:28:30;97103.84;;;5.57;93.59
38912;BME280;28444;48.056;14.408;2023-11-21T02:30:57;97105.50;;;5.60;94.35
38912;BME280;28444;48.056;14.408;2023-11-21T02:33:25;97104.44;;;5.70;96.67
38912;BME280;28444;48.056;14.408;2023-11-21T02:35:52;97102.97;;;5.69;96.58
38912;BME280;28444;48.056;14.408;2023-11-21T02:38:21;97099.19;;;5.72;96.59
38912;BME280;28444;48.056;14.408;2023-11-21T02:40:48;97105.50;;;5.67;95.95
38912;BME280;28444;48.056;14.408;2023-11-21T02:43:16;97097.72;;;5.64;95.75
38912;BME280;28444;48.056;14.408;2023-11-21T02:45:42;97096.09;;;5.61;96.34
38912;BME280;28444;48.056;14.408;2023-11-21T02:48:09;97095.34;;;5.52;95.80
38912;BME280;28444;48.056;14.408;2023-11-21T02:50:36;97089.72;;;5.50;95.83
38912;BME280;28444;48.056;14.408;2023-11-21T02:53:04;97089.94;;;5.52;95.93
38912;BME280;28444;48.056;14.408;2023-11-21T02:55:32;97085.75;;;5.59;96.12
38912;BME280;28444;48.056;14.408;2023-11-21T02:58:02;97101.16;;;5.64;96.77
38912;BME280;28444;48.056;14.408;2023-11-21T03:00:31;97094.66;;;5.67;96.55
38912;BME280;28444;48.056;14.408;2023-11-21T03:02:57;97098.81;;;5.68;96.18
38912;BME280;28444;48.056;14.408;2023-11-21T03:05:24;97108.59;;;5.71;95.64
38912;BME280;28444;48.056;14.408;2023-11-21T03:07:51;97105.88;;;5.79;95.86
38912;BME280;28444;48.056;14.408;2023-11-21T03:10:17;97113.31;;;5.86;95.63
38912;BME280;28444;48.056;14.408;2023-11-21T03:12:45;97114.81;;;5.95;95.81
38912;BME280;28444;48.056;14.408;2023-11-21T03:15:12;97105.59;;;6.06;96.25
38912;BME280;28444;48.056;14.408;2023-11-21T03:17:39;97104.16;;;6.12;95.61
38912;BME280;28444;48.056;14.408;2023-11-21T03:20:07;97105.06;;;6.22;94.79
38912;BME280;28444;48.056;14.408;2023-11-21T03:22:37;97098.91;;;6.30;94.10
38912;BME280;28444;48.056;14.408;2023-11-21T03:25:06;97095.97;;;6.35;93.79
38912;BME280;28444;48.056;14.408;2023-11-21T03:27:32;97086.22;;;6.40;93.05
38912;BME280;28444;48.056;14.408;2023-11-21T03:29:59;97095.81;;;6.41;93.11
38912;BME280;28444;48.056;14.408;2023-11-21T03:32:26;97092.38;;;6.40;92.97
38912;BME280;28444;48.056;14.408;2023-11-21T03:34:56;97087.84;;;6.35;92.18
38912;BME280;28444;48.056;14.408;2023-11-21T03:37:24;97085.66;;;6.41;92.83
38912;BME280;28444;48.056;14.408;2023-11-21T03:39:55;97082.41;;;6.50;91.19
38912;BME280;28444;48.056;14.408;2023-11-21T03:42:23;97074.78;;;6.57;89.58
38912;BME280;28444;48.056;14.408;2023-11-21T03:44:52;97070.78;;;6.73;88.74
38912;BME280;28444;48.056;14.408;2023-11-21T03:47:19;97074.75;;;6.72;88.45
38912;BME280;28444;48.056;14.408;2023-11-21T03:49:46;97067.53;;;6.67;88.97
38912;BME280;28444;48.056;14.408;2023-11-21T03:52:13;97071.50;;;6.66;89.42
38912;BME280;28444;48.056;14.408;2023-11-21T03:54:39;97064.06;;;6.66;89.48
38912;BME280;28444;48.056;14.408;2023-11-21T03:57:06;97058.66;;;6.66;89.91
38912;BME280;28444;48.056;14.408;2023-11-21T03:59:32;97068.97;;;6.68;90.39
38912;BME280;28444;48.056;14.408;2023-11-21T04:01:59;97066.78;;;6.74;90.60
38912;BME280;28444;48.056;14.408;2023-11-21T04:04:25;97066.78;;;6.74;90.86
38912;BME280;28444;48.056;14.408;2023-11-21T04:06:52;97064.63;;;6.72;90.34
38912;BME280;28444;48.056;14.408;2023-11-21T04:09:19;97070.41;;;6.69;90.27
38912;BME280;28444;48.056;14.408;2023-11-21T04:11:46;97063.00;;;6.69;90.77
38912;BME280;28444;48.056;14.408;2023-11-21T04:14:14;97057.19;;;6.73;89.86
38912;BME280;28444;48.056;14.408;2023-11-21T04:16:41;97057.00;;;6.71;90.30
38912;BME280;28444;48.056;14.408;2023-11-21T04:19:08;97056.63;;;6.74;89.77
38912;BME280;28444;48.056;14.408;2023-11-21T04:21:41;97060.63;;;6.73;89.75
38912;BME280;28444;48.056;14.408;2023-11-21T04:24:08;97069.16;;;6.70;90.43
38912;BME280;28444;48.056;14.408;2023-11-21T04:26:34;97068.59;;;6.71;90.67
38912;BME280;28444;48.056;14.408;2023-11-21T04:29:01;97072.22;;;6.74;90.14
38912;BME280;28444;48.056;14.408;2023-11-21T04:31:27;97071.88;;;6.62;90.19
38912;BME280;28444;48.056;14.408;2023-11-21T04:33:54;97071.34;;;6.56;90.27
38912;BME280;28444;48.056;14.408;2023-11-21T04:36:21;97078.41;;;6.59;90.60
38912;BME280;28444;48.056;14.408;2023-11-21T04:38:47;97075.50;;;6.49;91.62
38912;BME280;28444;48.056;14.408;2023-11-21T04:41:14;97082.78;;;6.47;90.99
38912;BME280;28444;48.056;14.408;2023-11-21T04:43:41;97083.31;;;6.45;91.40
38912;BME280;28444;48.056;14.408;2023-11-21T04:46:08;97081.31;;;6.54;91.50
38912;BME280;28444;48.056;14.408;2023-11-21T04:48:35;97085.28;;;6.53;91.58
38912;BME280;28444;48.056;14.408;2023-11-21T04:51:02;97084.41;;;6.50;92.20
38912;BME280;28444;48.056;14.408;2023-11-21T04:53:30;97088.00;;;6.53;91.26
38912;BME280;28444;48.056;14.408;2023-11-21T04:55:57;97085.13;;;6.50;91.59
38912;BME280;28444;48.056;14.408;2023-11-21T04:58:24;97082.41;;;6.50;92.33
38912;BME280;28444;48.056;14.408;2023-11-21T05:00:50;97083.28;;;6.53;92.49
38912;BME280;28444;48.056;14.408;2023-11-21T05:03:17;97089.06;;;6.57;92.00
38912;BME280;28444;48.056;14.408;2023-11-21T05:05:44;97088.56;;;6.59;91.76
38912;BME280;28444;48.056;14.408;2023-11-21T05:08:11;97091.44;;;6.53;91.34
38912;BME280;28444;48.056;14.408;2023-11-21T05:10:37;97090.03;;;6.44;91.98
38912;BME280;28444;48.056;14.408;2023-11-21T05:13:05;97097.44;;;6.36;93.04
38912;BME280;28444;48.056;14.408;2023-11-21T05:15:37;97100.16;;;6.36;93.03
38912;BME280;28444;48.056;14.408;2023-11-21T05:18:05;97097.44;;;6.36;92.44
38912;BME280;28444;48.056;14.408;2023-11-21T05:20:32;97096.53;;;6.41;91.96
38912;BME280;28444;48.056;14.408;2023-11-21T05:22:59;97098.91;;;6.37;92.14
38912;BME280;28444;48.056;14.408;2023-11-21T05:25:26;97099.06;;;6.32;91.94
38912;BME280;28444;48.056;14.408;2023-11-21T05:27:52;97098.91;;;6.37;92.11
38912;BME280;28444;48.056;14.408;2023-11-21T05:30:21;97098.91;;;6.37;92.22
38912;BME280;28444;48.056;14.408;2023-11-21T05:32:48;97103.97;;;6.41;92.36
38912;BME280;28444;48.056;14.408;2023-11-21T05:35:16;97099.44;;;6.43;92.63
38912;BME280;28444;48.056;14.408;2023-11-21T05:37:44;97107.38;;;6.49;92.59
38912;BME280;28444;48.056;14.408;2023-11-21T05:40:12;97107.03;;;6.53;93.30
38912;BME280;28444;48.056;14.408;2023-11-21T05:42:40;97101.41;;;6.58;92.43
38912;BME280;28444;48.056;14.408;2023-11-21T05:45:08;97098.16;;;6.60;92.50
38912;BME280;28444;48.056;14.408;2023-11-21T05:47:40;97096.88;;;6.61;91.80
38912;BME280;28444;48.056;14.408;2023-11-21T05:50:09;97092.88;;;6.69;93.75
38912;BME280;28444;48.056;14.408;2023-11-21T05:52:37;97100.84;;;6.60;92.47
38912;BME280;28444;48.056;14.408;2023-11-21T05:55:04;97101.06;;;6.62;93.06
38912;BME280;28444;48.056;14.408;2023-11-21T05:57:37;97105.22;;;6.63;92.69
38912;BME280;28444;48.056;14.408;2023-11-21T06:00:14;97107.00;;;6.60;92.88
38912;BME280;28444;48.056;14.408;2023-11-21T06:02:53;97110.28;;;6.66;92.40
38912;BME280;28444;48.056;14.408;2023-11-21T06:05:23;97117.69;;;6.66;92.36
38912;BME280;28444;48.056;14.408;2023-11-21T06:07:50;97123.50;;;6.62;92.03
38912;BME280;28444;48.056;14.408;2023-11-21T06:10:20;97117.34;;;6.62;92.23
38912;BME280;28444;48.056;14.408;2023-11-21T06:12:47;97118.97;;;6.65;92.58
38912;BME280;28444;48.056;14.408;2023-11-21T06:15:15;97123.13;;;6.66;93.15
38912;BME280;28444;48.056;14.408;2023-11-21T06:17:42;97126.22;;;6.62;92.89
38912;BME280;28444;48.056;14.408;2023-11-21T06:20:11;97130.22;;;6.61;93.52
38912;BME280;28444;48.056;14.408;2023-11-21T06:22:42;97127.31;;;6.59;94.56
38912;BME280;28444;48.056;14.408;2023-11-21T06:25:11;97131.28;;;6.66;94.12
38912;BME280;28444;48.056;14.408;2023-11-21T06:27:46;97134.16;;;6.68;93.68
38912;BME280;28444;48.056;14.408;2023-11-21T06:30:17;97137.81;;;6.63;93.62
38912;BME280;28444;48.056;14.408;2023-11-21T06:32:46;97138.00;;;6.65;94.39
38912;BME280;28444;48.056;14.408;2023-11-21T06:35:14;97138.88;;;6.67;93.64
38912;BME280;28444;48.056;14.408;2023-11-21T06:37:43;97137.78;;;6.70;94.35
38912;BME280;28444;48.056;14.408;2023-11-21T06:40:15;97142.88;;;6.74;94.09
38912;BME280;28444;48.056;14.408;2023-11-21T06:42:42;97146.13;;;6.72;93.52
38912;BME280;28444;48.056;14.408;2023-11-21T06:45:10;97143.44;;;6.72;93.80
38912;BME280;28444;48.056;14.408;2023-11-21T06:47:38;97150.13;;;6.79;94.47
38912;BME280;28444;48.056;14.408;2023-11-21T06:50:05;97147.03;;;6.83;93.82
38912;BME280;28444;48.056;14.408;2023-11-21T06:52:33;97160.41;;;6.88;94.48
38912;BME280;28444;48.056;14.408;2023-11-21T06:54:59;97153.00;;;6.89;93.74
38912;BME280;28444;48.056;14.408;2023-11-21T06:57:26;97166.22;;;6.92;94.82
38912;BME280;28444;48.056;14.408;2023-11-21T06:59:53;97164.94;;;6.93;94.10
38912;BME280;28444;48.056;14.408;2023-11-21T07:02:20;97164.59;;;6.89;93.54
38912;BME280;28444;48.056;14.408;2023-11-21T07:04:47;97164.06;;;6.75;94.79
38912;BME280;28444;48.056;14.408;2023-11-21T07:07:13;97164.59;;;6.89;94.37
38912;BME280;28444;48.056;14.408;2023-11-21T07:09:40;97163.69;;;6.87;94.73
38912;BME280;28444;48.056;14.408;2023-11-21T07:12:07;97162.44;;;6.80;95.49
38912;BME280;28444;48.056;14.408;2023-11-21T07:14:34;97165.69;;;6.79;96.90
38912;BME280;28444;48.056;14.408;2023-11-21T07:17:01;97164.25;;;6.70;97.56
38912;BME280;28444;48.056;14.408;2023-11-21T07:19:28;97161.19;;;6.66;98.63
38912;BME280;28444;48.056;14.408;2023-11-21T07:21:55;97164.06;;;6.75;99.47
38912;BME280;28444;48.056;14.408;2023-11-21T07:24:22;97164.78;;;6.61;99.99
38912;BME280;28444;48.056;14.408;2023-11-21T07:26:53;97162.63;;;6.67;99.79
38912;BME280;28444;48.056;14.408;2023-11-21T07:29:26;97161.34;;;6.68;100.00
38912;BME280;28444;48.056;14.408;2023-11-21T07:31:53;97165.16;;;6.57;100.00
38912;BME280;28444;48.056;14.408;2023-11-21T07:34:20;97169.34;;;6.50;100.00
38912;BME280;28444;48.056;14.408;2023-11-21T07:36:47;97171.69;;;6.54;100.00
38912;BME280;28444;48.056;14.408;2023-11-21T07:39:14;97164.44;;;6.49;100.00
38912;BME280;28444;48.056;14.408;2023-11-21T07:41:43;97174.06;;;6.50;100.00
38912;BME280;28444;48.056;14.408;2023-11-21T07:44:18;97180.72;;;6.57;100.00
38912;BME280;28444;48.056;14.408;2023-11-21T07:46:46;97180.22;;;6.58;100.00
38912;BME280;28444;48.056;14.408;2023-11-21T07:49:13;97181.09;;;6.53;100.00
38912;BME280;28444;48.056;14.408;2023-11-21T07:51:43;97180.22;;;6.50;100.00
38912;BME280;28444;48.056;14.408;2023-11-21T07:54:11;97188.34;;;6.50;100.00
38912;BME280;28444;48.056;14.408;2023-11-21T07:56:38;97193.44;;;6.54;100.00
38912;BME280;28444;48.056;14.408;2023-11-21T07:59:04;97192.31;;;6.57;100.00
38912;BME280;28444;48.056;14.408;2023-11-21T08:01:32;97190.00;;;6.61;100.00
38912;BME280;28444;48.056;14.408;2023-11-21T08:03:59;97191.25;;;6.60;100.00
38912;BME280;28444;48.056;14.408;2023-11-21T08:06:30;97195.78;;;6.65;100.00
38912;BME280;28444;48.056;14.408;2023-11-21T08:08:57;97192.16;;;6.70;100.00
38912;BME280;28444;48.056;14.408;2023-11-21T08:11:24;97205.00;;;6.78;100.00
38912;BME280;28444;48.056;14.408;2023-11-21T08:13:51;97206.09;;;6.82;100.00
38912;BME280;28444;48.056;14.408;2023-11-21T08:16:17;97195.41;;;6.84;100.00
38912;BME280;28444;48.056;14.408;2023-11-21T08:18:44;97193.22;;;6.90;100.00
38912;BME280;28444;48.056;14.408;2023-11-21T08:21:12;97191.03;;;6.96;100.00
38912;BME280;28444;48.056;14.408;2023-11-21T08:23:39;97189.59;;;6.95;100.00
38912;BME280;28444;48.056;14.408;2023-11-21T08:26:06;97193.19;;;7.06;100.00
38912;BME280;28444;48.056;14.408;2023-11-21T08:28:33;97186.09;;;7.18;100.00
38912;BME280;28444;48.056;14.408;2023-11-21T08:31:00;97185.34;;;7.33;100.00
38912;BME280;28444;48.056;14.408;2023-11-21T08:33:27;97182.03;;;7.50;100.00
38912;BME280;28444;48.056;14.408;2023-11-21T08:35:54;97182.00;;;7.57;100.00
38912;BME280;28444;48.056;14.408;2023-11-21T08:38:21;97181.38;;;7.74;100.00
38912;BME280;28444;48.056;14.408;2023-11-21T08:40:48;97180.91;;;7.93;100.00
38912;BME280;28444;48.056;14.408;2023-11-21T08:43:14;97178.72;;;7.91;100.00
38912;BME280;28444;48.056;14.408;2023-11-21T08:45:42;97183.31;;;7.89;100.00
38912;BME280;28444;48.056;14.408;2023-11-21T08:48:09;97178.41;;;7.87;100.00
38912;BME280;28444;48.056;14.408;2023-11-21T08:50:38;97177.91;;;7.81;100.00
38912;BME280;28444;48.056;14.408;2023-11-21T08:53:04;97182.47;;;7.71;100.00
38912;BME280;28444;48.056;14.408;2023-11-21T08:55:32;97176.47;;;7.72;100.00
38912;BME280;28444;48.056;14.408;2023-11-21T08:58:04;97182.28;;;7.69;100.00
38912;BME280;28444;48.056;14.408;2023-11-21T09:00:32;97184.69;;;7.65;100.00
38912;BME280;28444;48.056;14.408;2023-11-21T09:03:01;97183.53;;;7.76;100.00
38912;BME280;28444;48.056;14.408;2023-11-21T09:05:29;97189.09;;;7.93;100.00
38912;BME280;28444;48.056;14.408;2023-11-21T09:07:56;97185.38;;;8.06;100.00
38912;BME280;28444;48.056;14.408;2023-11-21T09:10:23;97192.00;;;8.20;100.00
38912;BME280;28444;48.056;14.408;2023-11-21T09:12:52;97182.53;;;8.29;98.76
38912;BME280;28444;48.056;14.408;2023-11-21T09:15:18;97188.34;;;8.25;99.50
38912;BME280;28444;48.056;14.408;2023-11-21T09:17:47;97183.06;;;8.27;99.74
38912;BME280;28444;48.056;14.408;2023-11-21T09:20:15;97188.50;;;8.27;99.29
38912;BME280;28444;48.056;14.408;2023-11-21T09:22:42;97178.31;;;8.35;99.18
38912;BME280;28444;48.056;14.408;2023-11-21T09:25:11;97186.88;;;8.24;97.96
38912;BME280;28444;48.056;14.408;2023-11-21T09:27:39;97186.69;;;8.30;97.13
38912;BME280;28444;48.056;14.408;2023-11-21T09:30:07;97183.94;;;8.37;97.93
38912;BME280;28444;48.056;14.408;2023-11-21T09:32:40;97182.44;;;8.44;96.92
38912;BME280;28444;48.056;14.408;2023-11-21T09:35:08;97184.19;;;8.49;97.02
38912;BME280;28444;48.056;14.408;2023-11-21T09:37:35;97190.44;;;8.42;96.59
38912;BME280;28444;48.056;14.408;2023-11-21T09:40:02;97194.94;;;8.47;96.14
38912;BME280;28444;48.056;14.408;2023-11-21T09:42:36;97187.44;;;8.55;95.86
38912;BME280;28444;48.056;14.408;2023-11-21T09:45:26;97180.69;;;8.56;96.13
38912;BME280;28444;48.056;14.408;2023-11-21T09:47:55;97190.72;;;8.54;96.45
38912;BME280;28444;48.056;14.408;2023-11-21T09:50:23;97180.22;;;8.50;95.60
38912;BME280;28444;48.056;14.408;2023-11-21T09:53:21;97188.38;;;8.50;96.89
38912;BME280;28444;48.056;14.408;2023-11-21T09:55:51;97181.72;;;8.43;97.85
38912;BME280;28444;48.056;14.408;2023-11-21T09:58:20;97184.97;;;8.42;97.63
38912;BME280;28444;48.056;14.408;2023-11-21T10:00:53;97180.44;;;8.44;97.72
38912;BME280;28444;48.056;14.408;2023-11-21T10:03:20;97183.19;;;8.37;97.92
38912;BME280;28444;48.056;14.408;2023-11-21T10:05:48;97173.97;;;8.32;96.66
38912;BME280;28444;48.056;14.408;2023-11-21T10:08:17;97176.56;;;8.23;96.21
38912;BME280;28444;48.056;14.408;2023-11-21T10:10:45;97177.66;;;8.19;95.52
38912;BME280;28444;48.056;14.408;2023-11-21T10:13:14;97169.16;;;8.15;96.83
38912;BME280;28444;48.056;14.408;2023-11-21T10:15:49;97172.94;;;8.20;96.78
38912;BME280;28444;48.056;14.408;2023-11-21T10:18:16;97178.72;;;8.24;96.98
38912;BME280;28444;48.056;14.408;2023-11-21T10:20:44;97173.84;;;8.23;96.13
38912;BME280;28444;48.056;14.408;2023-11-21T10:23:20;97182.00;;;8.23;95.34
38912;BME280;28444;48.056;14.408;2023-11-21T10:25:48;97182.63;;;8.13;96.62
38912;BME280;28444;48.056;14.408;2023-11-21T10:28:16;97182.56;;;8.21;96.92
38912;BME280;28444;48.056;14.408;2023-11-21T10:30:42;97179.91;;;8.13;97.94
38912;BME280;28444;48.056;14.408;2023-11-21T10:33:10;97181.31;;;7.89;100.00
38912;BME280;28444;48.056;14.408;2023-11-21T10:35:48;97185.06;;;7.94;100.00
38912;BME280;28444;48.056;14.408;2023-11-21T10:38:18;97179.34;;;7.82;100.00
38912;BME280;28444;48.056;14.408;2023-11-21T10:40:46;97178.28;;;7.78;100.00
38912;BME280;28444;48.056;14.408;2023-11-21T10:43:13;97183.78;;;7.62;100.00
38912;BME280;28444;48.056;14.408;2023-11-21T10:45:42;97174.78;;;7.44;100.00
38912;BME280;28444;48.056;14.408;2023-11-21T10:48:12;97181.13;;;7.39;100.00
38912;BME280;28444;48.056;14.408;2023-11-21T10:50:41;97179.88;;;7.33;100.00
38912;BME280;28444;48.056;14.408;2023-11-21T10:53:09;97181.53;;;7.28;100.00
38912;BME280;28444;48.056;14.408;2023-11-21T10:55:38;97184.25;;;7.28;100.00
38912;BME280;28444;48.056;14.408;2023-11-21T10:58:06;97180.44;;;7.31;100.00
38912;BME280;28444;48.056;14.408;2023-11-21T11:00:33;97189.69;;;7.28;100.00
38912;BME280;28444;48.056;14.408;2023-11-21T11:03:00;97184.06;;;7.34;100.00
38912;BME280;28444;48.056;14.408;2023-11-21T11:05:29;97187.69;;;7.36;100.00
38912;BME280;28444;48.056;14.408;2023-11-21T11:08:00;97177.88;;;7.33;100.00
38912;BME280;28444;48.056;14.408;2023-11-21T11:10:29;97175.00;;;7.31;100.00
38912;BME280;28444;48.056;14.408;2023-11-21T11:12:57;97184.97;;;7.36;100.00
38912;BME280;28444;48.056;14.408;2023-11-21T11:15:25;97188.97;;;7.35;100.00
38912;BME280;28444;48.056;14.408;2023-11-21T11:17:53;97180.44;;;7.39;100.00
38912;BME280;28444;48.056;14.408;2023-11-21T11:20:27;97182.78;;;7.35;100.00
38912;BME280;28444;48.056;14.408;2023-11-21T11:26:12;97185.47;;;7.50;100.00
38912;BME280;28444;48.056;14.408;2023-11-21T11:28:57;97181.69;;;7.45;100.00
38912;BME280;28444;48.056;14.408;2023-11-21T11:37:01;97179.69;;;7.38;100.00
38912;BME280;28444;48.056;14.408;2023-11-21T11:39:40;97190.06;;;7.32;100.00
38912;BME280;28444;48.056;14.408;2023-11-21T11:42:14;97179.69;;;7.38;100.00
38912;BME280;28444;48.056;14.408;2023-11-21T11:47:23;97178.53;;;7.09;100.00
38912;BME280;28444;48.056;14.408;2023-11-21T11:50:07;97180.16;;;7.12;100.00
38912;BME280;28444;48.056;14.408;2023-11-21T11:52:45;97183.38;;;7.18;100.00
38912;BME280;28444;48.056;14.408;2023-11-21T11:55:13;97182.69;;;7.10;100.00
38912;BME280;28444;48.056;14.408;2023-11-21T11:57:41;97181.59;;;7.13;100.00
38912;BME280;28444;48.056;14.408;2023-11-21T12:00:14;97186.69;;;7.09;100.00
38912;BME280;28444;48.056;14.408;2023-11-21T12:02:57;97181.63;;;6.97;100.00
38912;BME280;28444;48.056;14.408;2023-11-21T12:05:26;97185.06;;;6.98;100.00
38912;BME280;28444;48.056;14.408;2023-11-21T12:08:03;97187.56;;;7.04;100.00
38912;BME280;28444;48.056;14.408;2023-11-21T12:10:31;97185.56;;;7.19;100.00
38912;BME280;28444;48.056;14.408;2023-11-21T12:13:06;97190.25;;;7.34;100.00
38912;BME280;28444;48.056;14.408;2023-11-21T12:15:39;97190.41;;;7.29;100.00
38912;BME280;28444;48.056;14.408;2023-11-21T12:18:09;97188.63;;;7.23;100.00
38912;BME280;28444;48.056;14.408;2023-11-21T12:20:36;97192.41;;;7.36;100.00
38912;BME280;28444;48.056;14.408;2023-11-21T12:23:06;97192.38;;;7.43;100.00
38912;BME280;28444;48.056;14.408;2023-11-21T12:25:35;97188.03;;;7.48;100.00
38912;BME280;28444;48.056;14.408;2023-11-21T12:28:03;97189.06;;;7.60;100.00
38912;BME280;28444;48.056;14.408;2023-11-21T12:30:31;97187.66;;;7.52;100.00
38912;BME280;28444;48.056;14.408;2023-11-21T12:32:59;97189.44;;;7.57;100.00
38912;BME280;28444;48.056;14.408;2023-11-21T12:35:31;97183.50;;;7.43;100.00
38912;BME280;28444;48.056;14.408;2023-11-21T12:38:01;97186.53;;;7.55;100.00
38912;BME280;28444;48.056;14.408;2023-11-21T12:40:36;97187.19;;;7.70;100.00
38912;BME280;28444;48.056;14.408;2023-11-21T12:43:02;97175.25;;;7.58;100.00
38912;BME280;28444;48.056;14.408;2023-11-21T12:45:31;97183.00;;;7.69;100.00
38912;BME280;28444;48.056;14.408;2023-11-21T12:48:02;97184.47;;;7.70;100.00
38912;BME280;28444;48.056;14.408;2023-11-21T12:50:34;97181.84;;;7.88;100.00
38912;BME280;28444;48.056;14.408;2023-11-21T12:53:04;97179.28;;;7.90;100.00
38912;BME280;28444;48.056;14.408;2023-11-21T12:55:33;97173.47;;;7.93;100.00
38912;BME280;28444;48.056;14.408;2023-11-21T12:58:02;97180.88;;;8.01;100.00
38912;BME280;28444;48.056;14.408;2023-11-21T13:00:42;97184.50;;;8.03;100.00
38912;BME280;28444;48.056;14.408;2023-11-21T13:03:11;97179.59;;;8.02;100.00
38912;BME280;28444;48.056;14.408;2023-11-21T13:05:40;97185.59;;;8.00;100.00
38912;BME280;28444;48.056;14.408;2023-11-21T13:08:14;97180.09;;;8.08;100.00
38912;BME280;28444;48.056;14.408;2023-11-21T13:10:49;97180.78;;;8.16;100.00
38912;BME280;28444;48.056;14.408;2023-11-21T13:13:16;97180.09;;;8.08;100.00
38912;BME280;28444;48.056;14.408;2023-11-21T13:15:54;97190.03;;;8.13;100.00